Time;durP1;ratioP1;P1;durP2;ratioP2;P2;SDS_P1;SDS_P2;PMS_P1;PMS_P2;Temp;Humidity;BMP_temperature;BMP_pressure;BME280_temperature;BME280_humidity;BME280_pressure;Samples;Min_cycle;Max_cycle;Signal;HPM_P1;HPM_P2
2023/03/31 00:01:40;;;;;;;6.93;2.97;;;;;;;;;;4987635;28;20439;-45
2023/03/31 00:04:08;;;;;;;4.97;2.90;;;;;;;;;;4985174;28;20921;-45
2023/03/31 00:06:36;;;;;;;11.70;4.13;;;;;;;;;;4986535;28;20461;-44
2023/03/31 00:09:03;;;;;;;7.83;3.27;;;;;;;;;;4986298;28;20472;-43
2023/03/31 00:11:29;;;;;;;5.50;3.30;;;;;;;;;;4981324;28;20572;-46
2023/03/31 00:13:55;;;;;;;9.50;3.90;;;;;;;;;;4973655;28;20436;-43
2023/03/31 00:16:21;;;;;;;8.57;4.83;;;;;;;;;;4976314;28;20420;-44
2023/03/31 00:18:49;;;;;;;4.80;3.23;;;;;;;;;;4982382;28;21003;-44
2023/03/31 00:21:23;;;;;;;7.20;3.10;;;;;;;;;;4985048;28;20432;-44
2023/03/31 00:23:56;;;;;;;5.63;4.00;;;;;;;;;;4982736;28;20435;-44
2023/03/31 00:26:22;;;;;;;7.93;2.60;;;;;;;;;;4980568;28;20474;-44
2023/03/31 00:28:49;;;;;;;6.23;2.13;;;;;;;;;;4980790;28;20432;-43
2023/03/31 00:31:15;;;;;;;10.73;3.40;;;;;;;;;;4982694;28;20420;-46
2023/03/31 00:33:41;;;;;;;7.20;3.10;;;;;;;;;;4984945;28;20417;-45
2023/03/31 00:36:07;;;;;;;6.57;3.07;;;;;;;;;;4981706;28;20422;-44
2023/03/31 00:38:34;;;;;;;5.03;2.80;;;;;;;;;;4982701;28;20886;-46
2023/03/31 00:40:59;;;;;;;4.80;3.37;;;;;;;;;;4982569;28;20426;-45
2023/03/31 00:43:26;;;;;;;5.97;3.10;;;;;;;;;;4982303;28;20459;-45
2023/03/31 00:45:53;;;;;;;7.57;3.43;;;;;;;;;;4982147;28;20457;-45
2023/03/31 00:48:20;;;;;;;5.10;2.73;;;;;;;;;;4987247;28;20429;-44
2023/03/31 00:50:52;;;;;;;7.50;3.10;;;;;;;;;;4984716;28;20926;-44
2023/03/31 00:53:19;;;;;;;5.70;3.53;;;;;;;;;;4979765;28;20420;-44
2023/03/31 00:55:47;;;;;;;8.53;3.30;;;;;;;;;;4973509;28;20432;-45
2023/03/31 00:58:14;;;;;;;7.80;2.80;;;;;;;;;;4975646;28;20441;-45
2023/03/31 01:00:40;;;;;;;4.13;2.50;;;;;;;;;;4983915;28;20900;-46
2023/03/31 01:03:08;;;;;;;6.77;4.50;;;;;;;;;;4981730;28;20436;-46
2023/03/31 01:05:49;;;;;;;6.87;3.73;;;;;;;;;;4984394;28;20468;-45
2023/03/31 01:08:16;;;;;;;8.77;3.47;;;;;;;;;;4982815;28;20468;-45
2023/03/31 01:10:47;;;;;;;10.73;4.07;;;;;;;;;;4982095;28;20416;-45
2023/03/31 01:13:14;;;;;;;8.33;3.43;;;;;;;;;;4983555;28;20908;-45
2023/03/31 01:15:41;;;;;;;9.87;3.57;;;;;;;;;;4979660;28;20417;-45
2023/03/31 01:18:09;;;;;;;5.17;2.90;;;;;;;;;;4984518;28;20480;-45
2023/03/31 01:20:54;;;;;;;11.73;3.00;;;;;;;;;;4984990;28;20412;-45
2023/03/31 01:23:20;;;;;;;5.63;3.00;;;;;;;;;;4980319;28;20408;-45
2023/03/31 01:26:06;;;;;;;5.43;3.13;;;;;;;;;;4979900;28;20469;-45
2023/03/31 01:28:38;;;;;;;6.57;3.67;;;;;;;;;;4974581;28;20492;-46
2023/03/31 01:31:21;;;;;;;5.33;2.60;;;;;;;;;;4982406;28;20492;-46
2023/03/31 01:33:57;;;;;;;8.50;3.70;;;;;;;;;;4982192;28;20939;-45
2023/03/31 01:36:35;;;;;;;8.20;3.83;;;;;;;;;;4978113;28;20428;-46
2023/03/31 01:39:21;;;;;;;11.53;3.93;;;;;;;;;;4978690;28;20430;-45
2023/03/31 01:42:11;;;;;;;7.10;4.40;;;;;;;;;;4976304;28;20448;-46
2023/03/31 01:44:46;;;;;;;5.97;3.67;;;;;;;;;;4970289;28;20413;-46
2023/03/31 01:47:21;;;;;;;14.43;4.07;;;;;;;;;;4983162;28;20421;-47
2023/03/31 01:49:58;;;;;;;7.53;3.37;;;;;;;;;;4989574;28;20432;-46
2023/03/31 01:52:27;;;;;;;12.00;5.13;;;;;;;;;;4977721;28;20914;-46
2023/03/31 01:54:54;;;;;;;4.30;2.90;;;;;;;;;;4982950;28;20416;-46
2023/03/31 01:57:23;;;;;;;10.67;3.37;;;;;;;;;;4975640;28;20931;-45
2023/03/31 01:59:52;;;;;;;5.57;3.03;;;;;;;;;;4980125;28;20463;-46
2023/03/31 02:02:25;;;;;;;7.10;3.97;;;;;;;;;;4983873;28;20904;-46
2023/03/31 02:05:04;;;;;;;10.13;3.50;;;;;;;;;;4980865;28;20413;-47
2023/03/31 02:07:42;;;;;;;13.07;6.73;;;;;;;;;;4973844;28;20918;-45
2023/03/31 02:10:09;;;;;;;9.30;3.80;;;;;;;;;;4981583;28;20409;-47
2023/03/31 02:12:36;;;;;;;7.07;4.57;;;;;;;;;;4980978;28;20420;-46
2023/03/31 02:15:05;;;;;;;8.67;3.97;;;;;;;;;;4981580;28;20483;-45
2023/03/31 02:17:32;;;;;;;11.10;5.40;;;;;;;;;;4984915;28;20908;-47
2023/03/31 02:20:01;;;;;;;7.37;3.70;;;;;;;;;;4984934;28;20444;-46
2023/03/31 02:22:29;;;;;;;5.00;3.10;;;;;;;;;;4979411;28;20420;-47
2023/03/31 02:24:56;;;;;;;9.73;3.90;;;;;;;;;;4977085;28;20417;-46
2023/03/31 02:27:26;;;;;;;12.20;5.60;;;;;;;;;;4973098;28;20436;-45
2023/03/31 02:29:52;;;;;;;12.17;5.43;;;;;;;;;;4981978;28;20436;-46
2023/03/31 02:32:30;;;;;;;7.67;3.13;;;;;;;;;;4983691;28;20400;-47
2023/03/31 02:34:56;;;;;;;7.73;4.07;;;;;;;;;;4980741;28;20541;-45
2023/03/31 02:37:23;;;;;;;10.23;5.13;;;;;;;;;;4983614;28;20496;-45
2023/03/31 02:39:50;;;;;;;11.03;3.40;;;;;;;;;;4981211;28;20440;-46
2023/03/31 02:42:16;;;;;;;8.17;3.27;;;;;;;;;;4975787;28;20564;-46
2023/03/31 02:44:42;;;;;;;10.53;3.53;;;;;;;;;;4983995;28;20413;-46
2023/03/31 02:47:12;;;;;;;13.37;4.93;;;;;;;;;;4980886;28;20424;-45
2023/03/31 02:49:39;;;;;;;9.83;4.30;;;;;;;;;;4981482;28;20416;-46
2023/03/31 02:52:24;;;;;;;14.77;4.87;;;;;;;;;;4984380;28;20415;-45
2023/03/31 02:54:59;;;;;;;9.60;5.27;;;;;;;;;;4980126;28;20777;-45
2023/03/31 02:57:44;;;;;;;11.17;4.77;;;;;;;;;;4974448;28;20919;-45
2023/03/31 03:00:23;;;;;;;10.23;4.07;;;;;;;;;;4986160;28;20405;-45
2023/03/31 03:02:49;;;;;;;11.67;3.50;;;;;;;;;;4985479;28;20400;-46
2023/03/31 03:05:33;;;;;;;9.87;5.47;;;;;;;;;;4987418;28;20471;-46
2023/03/31 03:08:02;;;;;;;12.03;4.90;;;;;;;;;;4985543;28;20436;-46
2023/03/31 03:10:48;;;;;;;6.90;3.47;;;;;;;;;;4980579;28;20935;-45
2023/03/31 03:13:26;;;;;;;15.43;4.53;;;;;;;;;;4984889;28;20423;-46
2023/03/31 03:15:56;;;;;;;8.80;4.10;;;;;;;;;;4988416;28;20503;-45
2023/03/31 03:18:22;;;;;;;13.20;4.57;;;;;;;;;;4982561;28;20440;-45
2023/03/31 03:20:49;;;;;;;9.30;4.03;;;;;;;;;;4982361;28;20432;-46
2023/03/31 03:23:16;;;;;;;11.40;4.23;;;;;;;;;;4984207;28;20421;-46
2023/03/31 03:25:42;;;;;;;10.73;3.87;;;;;;;;;;4983933;28;20915;-45
2023/03/31 03:28:08;;;;;;;8.67;4.07;;;;;;;;;;4988149;28;20443;-45
2023/03/31 03:30:34;;;;;;;14.83;4.33;;;;;;;;;;4983643;28;20435;-47
2023/03/31 03:33:00;;;;;;;15.67;4.67;;;;;;;;;;4987262;28;20408;-45
2023/03/31 03:35:26;;;;;;;14.10;4.57;;;;;;;;;;4981577;28;20475;-45
2023/03/31 03:37:52;;;;;;;8.77;3.57;;;;;;;;;;4979483;28;20418;-46
2023/03/31 03:40:18;;;;;;;14.87;3.83;;;;;;;;;;4986299;28;20517;-45
2023/03/31 03:42:44;;;;;;;12.47;4.10;;;;;;;;;;4985688;28;20505;-45
2023/03/31 03:45:10;;;;;;;6.97;3.53;;;;;;;;;;4985227;28;20471;-46
2023/03/31 03:47:36;;;;;;;13.93;5.00;;;;;;;;;;4984885;28;21066;-45
2023/03/31 03:50:02;;;;;;;16.63;4.23;;;;;;;;;;4970226;28;20418;-45
2023/03/31 03:52:28;;;;;;;5.13;3.53;;;;;;;;;;4986638;28;20783;-45
2023/03/31 03:54:54;;;;;;;12.03;3.77;;;;;;;;;;4986522;28;20419;-45
2023/03/31 03:57:20;;;;;;;12.33;4.03;;;;;;;;;;4978526;28;20503;-46
2023/03/31 03:59:48;;;;;;;7.73;3.57;;;;;;;;;;4982988;28;21007;-45
2023/03/31 04:02:14;;;;;;;12.77;4.40;;;;;;;;;;4985465;28;20414;-46
2023/03/31 04:04:40;;;;;;;7.47;3.90;;;;;;;;;;4977628;28;20451;-46
2023/03/31 04:07:06;;;;;;;9.60;3.87;;;;;;;;;;4983609;28;20827;-46
2023/03/31 04:09:32;;;;;;;11.03;3.80;;;;;;;;;;4982696;28;20425;-45
2023/03/31 04:11:58;;;;;;;5.37;4.00;;;;;;;;;;4988393;28;21026;-46
2023/03/31 04:14:24;;;;;;;8.30;3.93;;;;;;;;;;4978481;28;20409;-46
2023/03/31 04:16:50;;;;;;;18.63;6.03;;;;;;;;;;4983320;28;20412;-46
2023/03/31 04:19:17;;;;;;;11.70;3.83;;;;;;;;;;4985246;28;20440;-46
2023/03/31 04:21:57;;;;;;;7.37;3.90;;;;;;;;;;4983636;28;20413;-45
2023/03/31 04:24:29;;;;;;;5.27;3.50;;;;;;;;;;4980625;28;20413;-45
2023/03/31 04:26:55;;;;;;;7.20;4.10;;;;;;;;;;4978075;28;20555;-46
2023/03/31 04:29:25;;;;;;;7.00;3.93;;;;;;;;;;4989391;28;20461;-46
2023/03/31 04:31:52;;;;;;;7.53;4.07;;;;;;;;;;4986841;28;20494;-45
2023/03/31 04:34:25;;;;;;;10.73;4.10;;;;;;;;;;4980514;28;20422;-45
2023/03/31 04:36:54;;;;;;;11.47;3.97;;;;;;;;;;4978995;28;20447;-46
2023/03/31 04:39:29;;;;;;;10.20;3.93;;;;;;;;;;4983225;28;20459;-44
2023/03/31 04:41:55;;;;;;;6.77;3.77;;;;;;;;;;4982313;28;20520;-46
2023/03/31 04:44:21;;;;;;;9.43;3.57;;;;;;;;;;4974511;28;20413;-45
2023/03/31 04:46:47;;;;;;;8.63;3.57;;;;;;;;;;4981963;28;20467;-46
2023/03/31 04:49:13;;;;;;;8.13;4.00;;;;;;;;;;4986218;28;20472;-44
2023/03/31 04:51:39;;;;;;;8.50;3.83;;;;;;;;;;4982246;28;20826;-44
2023/03/31 04:54:05;;;;;;;10.20;4.33;;;;;;;;;;4978128;28;20981;-44
2023/03/31 04:56:31;;;;;;;10.93;4.00;;;;;;;;;;4988979;28;20491;-44
2023/03/31 04:58:57;;;;;;;16.77;5.00;;;;;;;;;;4980813;28;20994;-45
2023/03/31 05:01:23;;;;;;;9.57;4.03;;;;;;;;;;4985035;28;20404;-44
2023/03/31 05:03:49;;;;;;;7.67;3.60;;;;;;;;;;4982184;28;20436;-45
2023/03/31 05:06:17;;;;;;;10.37;3.87;;;;;;;;;;4984157;28;20468;-45
2023/03/31 05:08:43;;;;;;;11.97;3.63;;;;;;;;;;4980544;28;20432;-44
2023/03/31 05:11:10;;;;;;;9.33;2.73;;;;;;;;;;4983339;28;20412;-46
2023/03/31 05:13:36;;;;;;;12.83;4.87;;;;;;;;;;4984411;28;20412;-44
2023/03/31 05:16:08;;;;;;;6.77;3.93;;;;;;;;;;4981019;28;20424;-44
2023/03/31 05:18:34;;;;;;;7.80;4.80;;;;;;;;;;4982136;28;20518;-45
2023/03/31 05:21:08;;;;;;;11.00;4.40;;;;;;;;;;4982071;28;20413;-46
2023/03/31 05:23:34;;;;;;;9.33;3.20;;;;;;;;;;4975417;28;20405;-44
2023/03/31 05:26:01;;;;;;;6.63;3.90;;;;;;;;;;4982038;28;20475;-44
2023/03/31 05:28:27;;;;;;;5.10;3.70;;;;;;;;;;4984593;28;20467;-45
2023/03/31 05:30:53;;;;;;;8.67;3.60;;;;;;;;;;4984841;28;20782;-45
2023/03/31 05:33:19;;;;;;;10.60;4.40;;;;;;;;;;4979203;28;20418;-45
2023/03/31 05:35:45;;;;;;;8.20;3.67;;;;;;;;;;4979081;28;20420;-44
2023/03/31 05:38:11;;;;;;;4.47;3.47;;;;;;;;;;4982957;28;20438;-44
2023/03/31 05:40:37;;;;;;;8.10;3.90;;;;;;;;;;4984698;28;20427;-44
2023/03/31 05:43:02;;;;;;;8.50;3.93;;;;;;;;;;4982450;28;20491;-45
2023/03/31 05:45:28;;;;;;;12.30;3.70;;;;;;;;;;4983323;28;20535;-45
2023/03/31 05:47:54;;;;;;;8.27;4.27;;;;;;;;;;4983080;28;20412;-46
2023/03/31 05:50:20;;;;;;;5.87;3.30;;;;;;;;;;4977456;28;20773;-44
2023/03/31 05:52:48;;;;;;;4.90;3.20;;;;;;;;;;4984574;28;20412;-44
2023/03/31 05:55:15;;;;;;;12.60;3.30;;;;;;;;;;4980532;28;20509;-44
2023/03/31 05:57:41;;;;;;;8.10;4.13;;;;;;;;;;4982376;28;20407;-44
2023/03/31 06:00:10;;;;;;;16.20;7.70;;;;;;;;;;4979354;28;20791;-44
2023/03/31 06:02:36;;;;;;;6.00;3.93;;;;;;;;;;4980553;28;20424;-44
2023/03/31 06:05:02;;;;;;;11.67;4.83;;;;;;;;;;4981241;28;20473;-44
2023/03/31 06:07:30;;;;;;;6.63;4.33;;;;;;;;;;4980389;28;20436;-45
2023/03/31 06:09:56;;;;;;;10.17;4.67;;;;;;;;;;4986067;28;20432;-45
2023/03/31 06:12:22;;;;;;;4.40;2.90;;;;;;;;;;4980109;28;20852;-45
2023/03/31 06:14:48;;;;;;;8.27;4.07;;;;;;;;;;4974969;28;20856;-45
2023/03/31 06:17:14;;;;;;;8.23;4.60;;;;;;;;;;4981216;28;20401;-44
2023/03/31 06:19:40;;;;;;;7.33;3.70;;;;;;;;;;4980148;28;20428;-45
2023/03/31 06:22:06;;;;;;;5.30;3.80;;;;;;;;;;4982137;28;20428;-46
2023/03/31 06:24:34;;;;;;;7.20;4.80;;;;;;;;;;4982630;28;20521;-45
2023/03/31 06:27:00;;;;;;;7.07;3.37;;;;;;;;;;4974898;28;20452;-44
2023/03/31 06:29:27;;;;;;;7.13;2.63;;;;;;;;;;4984409;28;20436;-44
2023/03/31 06:31:53;;;;;;;8.03;3.83;;;;;;;;;;4986177;28;20426;-43
2023/03/31 06:34:20;;;;;;;7.80;5.87;;;;;;;;;;4983046;28;20610;-44
2023/03/31 06:36:46;;;;;;;6.17;3.77;;;;;;;;;;4987863;28;20489;-45
2023/03/31 06:39:12;;;;;;;6.30;2.93;;;;;;;;;;4981832;28;20486;-45
2023/03/31 06:41:38;;;;;;;6.10;3.07;;;;;;;;;;4983039;28;20575;-44
2023/03/31 06:44:04;;;;;;;4.87;3.27;;;;;;;;;;4988390;28;20527;-45
2023/03/31 06:46:30;;;;;;;5.97;4.27;;;;;;;;;;4987466;28;20467;-45
2023/03/31 06:48:56;;;;;;;5.90;3.37;;;;;;;;;;4985488;28;20436;-48
2023/03/31 06:51:22;;;;;;;5.60;3.30;;;;;;;;;;4988468;28;20413;-44
2023/03/31 06:53:48;;;;;;;5.23;2.83;;;;;;;;;;4986113;28;20426;-45
2023/03/31 06:56:14;;;;;;;3.83;3.30;;;;;;;;;;4980894;28;20413;-44
2023/03/31 06:58:42;;;;;;;7.50;3.20;;;;;;;;;;4987153;28;20522;-46
2023/03/31 07:01:10;;;;;;;5.43;3.17;;;;;;;;;;4981319;28;20443;-45
2023/03/31 07:03:36;;;;;;;5.13;3.23;;;;;;;;;;4981358;28;20831;-45
2023/03/31 07:06:02;;;;;;;9.10;3.57;;;;;;;;;;4978620;28;20468;-44
2023/03/31 07:08:28;;;;;;;7.70;3.57;;;;;;;;;;4985967;28;20806;-46
2023/03/31 07:10:59;;;;;;;5.50;3.50;;;;;;;;;;4978657;28;20448;-45
2023/03/31 07:13:25;;;;;;;11.37;4.53;;;;;;;;;;4972820;28;20467;-45
2023/03/31 07:15:52;;;;;;;6.57;3.97;;;;;;;;;;4986178;28;20913;-45
2023/03/31 07:18:20;;;;;;;6.83;3.40;;;;;;;;;;4987283;28;20442;-47
2023/03/31 07:20:49;;;;;;;6.40;3.73;;;;;;;;;;4987877;28;20777;-47
2023/03/31 07:23:16;;;;;;;6.53;3.70;;;;;;;;;;4983613;28;20415;-47
2023/03/31 07:25:41;;;;;;;4.90;3.77;;;;;;;;;;4983650;28;20948;-46
2023/03/31 07:28:07;;;;;;;10.77;3.40;;;;;;;;;;4983250;28;20436;-47
2023/03/31 07:30:35;;;;;;;6.73;4.20;;;;;;;;;;4979385;28;20432;-47
2023/03/31 07:33:01;;;;;;;9.83;3.63;;;;;;;;;;4988217;28;20503;-47
2023/03/31 07:35:27;;;;;;;9.37;3.37;;;;;;;;;;4980424;28;20419;-47
2023/03/31 07:37:54;;;;;;;7.03;3.70;;;;;;;;;;4982651;28;21035;-47
2023/03/31 07:40:24;;;;;;;4.77;3.20;;;;;;;;;;4982045;28;20459;-47
2023/03/31 07:42:51;;;;;;;8.73;3.10;;;;;;;;;;4983419;28;20498;-47
2023/03/31 07:45:19;;;;;;;4.50;3.10;;;;;;;;;;4985400;28;20496;-47
2023/03/31 07:47:45;;;;;;;6.27;3.37;;;;;;;;;;4982915;28;20426;-47
2023/03/31 07:50:13;;;;;;;6.30;2.87;;;;;;;;;;4986723;28;20412;-47
2023/03/31 07:52:39;;;;;;;5.00;2.40;;;;;;;;;;4982645;28;20498;-47
2023/03/31 07:55:06;;;;;;;7.50;2.90;;;;;;;;;;4974795;28;20416;-47
2023/03/31 07:57:34;;;;;;;10.67;4.33;;;;;;;;;;4987640;28;20407;-48
2023/03/31 08:00:05;;;;;;;7.27;5.13;;;;;;;;;;4982611;28;20846;-47
2023/03/31 08:02:33;;;;;;;2.93;2.63;;;;;;;;;;4980766;28;20427;-47
2023/03/31 08:05:00;;;;;;;4.93;2.80;;;;;;;;;;4983021;28;20440;-47
2023/03/31 08:07:29;;;;;;;6.50;3.77;;;;;;;;;;4982547;28;20466;-47
2023/03/31 08:09:56;;;;;;;4.97;2.80;;;;;;;;;;4983187;28;20431;-47
2023/03/31 08:12:22;;;;;;;6.97;2.80;;;;;;;;;;4982646;28;20437;-47
2023/03/31 08:14:48;;;;;;;4.17;3.00;;;;;;;;;;4986968;28;20451;-47
2023/03/31 08:17:14;;;;;;;6.40;3.10;;;;;;;;;;4981741;28;20423;-47
2023/03/31 08:19:40;;;;;;;5.50;2.73;;;;;;;;;;4982164;28;20444;-46
2023/03/31 08:22:08;;;;;;;3.27;2.83;;;;;;;;;;4979084;28;20409;-47
2023/03/31 08:24:34;;;;;;;4.07;2.60;;;;;;;;;;4983782;28;20437;-48
2023/03/31 08:27:02;;;;;;;8.20;3.17;;;;;;;;;;4988779;28;21013;-47
2023/03/31 08:29:28;;;;;;;4.47;3.27;;;;;;;;;;4984215;28;20433;-47
2023/03/31 08:31:55;;;;;;;7.87;3.67;;;;;;;;;;4983853;28;20482;-47
2023/03/31 08:34:23;;;;;;;9.73;3.97;;;;;;;;;;4977869;28;20840;-47
2023/03/31 08:36:50;;;;;;;7.60;3.67;;;;;;;;;;4986551;28;20443;-47
2023/03/31 08:39:16;;;;;;;6.03;2.63;;;;;;;;;;4983134;28;20444;-48
2023/03/31 08:41:51;;;;;;;8.47;2.67;;;;;;;;;;4985894;28;20451;-48
2023/03/31 08:44:21;;;;;;;6.40;2.77;;;;;;;;;;4982965;28;20926;-49
2023/03/31 08:46:49;;;;;;;3.80;3.10;;;;;;;;;;4985531;28;20471;-47
2023/03/31 08:49:18;;;;;;;4.67;2.70;;;;;;;;;;4979239;28;20444;-47
2023/03/31 08:51:48;;;;;;;7.60;2.90;;;;;;;;;;4981030;28;20405;-49
2023/03/31 08:54:16;;;;;;;7.37;3.33;;;;;;;;;;4985416;28;20413;-47
2023/03/31 08:56:45;;;;;;;3.50;2.93;;;;;;;;;;4988387;28;20412;-48
2023/03/31 08:59:39;;;;;;;4.90;3.03;;;;;;;;;;4985056;28;20991;-47
2023/03/31 09:02:17;;;;;;;5.13;3.20;;;;;;;;;;4977497;28;20436;-48
2023/03/31 09:04:50;;;;;;;4.50;2.97;;;;;;;;;;4983166;28;20404;-48
2023/03/31 09:07:34;;;;;;;4.73;2.90;;;;;;;;;;4983548;28;20525;-48
2023/03/31 09:10:17;;;;;;;4.67;2.87;;;;;;;;;;4983045;28;20433;-47
2023/03/31 09:12:49;;;;;;;5.07;2.80;;;;;;;;;;4987013;28;20429;-47
2023/03/31 09:15:34;;;;;;;5.17;4.03;;;;;;;;;;4988638;28;20962;-46
2023/03/31 09:18:03;;;;;;;6.17;2.93;;;;;;;;;;4986453;28;20524;-47
2023/03/31 09:20:38;;;;;;;8.97;3.97;;;;;;;;;;4981473;28;20428;-48
2023/03/31 09:23:13;;;;;;;9.77;2.87;;;;;;;;;;4984251;28;20427;-46
2023/03/31 09:25:41;;;;;;;6.43;2.80;;;;;;;;;;4973412;28;20465;-47
2023/03/31 09:28:13;;;;;;;9.20;3.27;;;;;;;;;;4972972;28;20552;-46
2023/03/31 09:30:41;;;;;;;3.30;3.00;;;;;;;;;;4972818;28;20442;-46
2023/03/31 09:33:22;;;;;;;6.10;3.43;;;;;;;;;;4973338;28;21025;-46
2023/03/31 09:35:49;;;;;;;5.03;2.73;;;;;;;;;;4974014;28;20552;-46
2023/03/31 09:38:15;;;;;;;5.80;3.20;;;;;;;;;;4973782;28;20434;-47
2023/03/31 09:40:43;;;;;;;4.60;2.93;;;;;;;;;;4975318;28;20432;-47
2023/03/31 09:43:18;;;;;;;7.43;3.63;;;;;;;;;;4975566;28;20502;-46
2023/03/31 09:45:45;;;;;;;6.53;2.80;;;;;;;;;;4975711;28;20553;-46
2023/03/31 09:48:14;;;;;;;5.80;2.83;;;;;;;;;;4975299;28;20434;-46
2023/03/31 09:50:45;;;;;;;7.63;3.80;;;;;;;;;;4975709;28;20412;-46
2023/03/31 09:53:17;;;;;;;5.10;2.90;;;;;;;;;;4975102;28;20443;-46
2023/03/31 09:55:51;;;;;;;6.50;2.90;;;;;;;;;;4967759;28;20409;-48
2023/03/31 09:58:17;;;;;;;3.70;2.67;;;;;;;;;;4975724;28;20766;-47
2023/03/31 10:00:56;;;;;;;7.17;4.57;;;;;;;;;;4974183;28;20423;-47
2023/03/31 10:03:24;;;;;;;10.20;3.20;;;;;;;;;;4973119;28;20441;-48
2023/03/31 10:05:51;;;;;;;4.13;3.47;;;;;;;;;;4972906;28;20565;-48
2023/03/31 10:08:17;;;;;;;5.77;2.83;;;;;;;;;;4974204;28;20516;-48
2023/03/31 10:10:58;;;;;;;10.03;3.87;;;;;;;;;;4974338;28;20466;-46
2023/03/31 10:13:28;;;;;;;7.13;3.57;;;;;;;;;;4974678;28;20417;-48
2023/03/31 10:15:55;;;;;;;8.07;3.83;;;;;;;;;;4975327;28;20423;-48
2023/03/31 10:18:30;;;;;;;3.00;2.70;;;;;;;;;;4974897;28;20446;-48
2023/03/31 10:20:58;;;;;;;8.77;4.30;;;;;;;;;;4975249;28;20769;-47
2023/03/31 10:23:26;;;;;;;7.73;3.87;;;;;;;;;;4974786;28;20476;-49
2023/03/31 10:25:53;;;;;;;12.37;5.83;;;;;;;;;;4973530;28;20465;-48
2023/03/31 10:28:20;;;;;;;4.40;3.50;;;;;;;;;;4973996;28;20442;-49
2023/03/31 10:30:50;;;;;;;9.30;4.53;;;;;;;;;;4976165;28;20497;-48
2023/03/31 10:33:21;;;;;;;9.57;3.60;;;;;;;;;;4974521;28;20495;-46
2023/03/31 10:35:49;;;;;;;5.70;2.97;;;;;;;;;;4972562;28;20625;-47
2023/03/31 10:38:19;;;;;;;12.40;4.13;;;;;;;;;;4972114;28;20452;-47
2023/03/31 10:40:52;;;;;;;14.90;3.83;;;;;;;;;;4972465;28;20834;-46
2023/03/31 10:43:20;;;;;;;12.60;3.83;;;;;;;;;;4972349;28;20432;-47
2023/03/31 10:45:50;;;;;;;15.80;4.87;;;;;;;;;;4972412;28;20531;-46
2023/03/31 10:48:29;;;;;;;18.50;4.03;;;;;;;;;;4969977;28;20463;-46
2023/03/31 10:50:59;;;;;;;14.53;4.83;;;;;;;;;;4972397;28;20417;-47
2023/03/31 10:53:25;;;;;;;7.07;3.53;;;;;;;;;;4973420;28;20446;-49
2023/03/31 10:56:11;;;;;;;15.43;6.07;;;;;;;;;;4962849;28;20427;-50
2023/03/31 10:58:47;;;;;;;14.33;4.63;;;;;;;;;;4971174;28;20450;-50
2023/03/31 11:01:33;;;;;;;11.83;5.63;;;;;;;;;;4973340;28;20421;-49
2023/03/31 11:04:17;;;;;;;10.07;4.73;;;;;;;;;;4962982;28;20424;-50
2023/03/31 11:06:51;;;;;;;12.93;7.60;;;;;;;;;;4982202;28;20514;-49
2023/03/31 11:09:34;;;;;;;12.40;4.90;;;;;;;;;;4983725;28;20857;-48
2023/03/31 11:12:00;;;;;;;8.57;4.53;;;;;;;;;;4978190;28;20417;-49
2023/03/31 11:14:32;;;;;;;9.80;7.87;;;;;;;;;;4986237;28;20931;-50
2023/03/31 11:17:25;;;;;;;22.43;20.67;;;;;;;;;;4977292;28;20447;-50
2023/03/31 11:19:57;;;;;;;12.77;11.80;;;;;;;;;;4976198;28;20429;-48
2023/03/31 11:22:52;;;;;;;10.27;9.40;;;;;;;;;;4976193;28;20936;-49
2023/03/31 11:25:19;;;;;;;15.33;5.80;;;;;;;;;;4958719;28;20419;-49
2023/03/31 11:28:04;;;;;;;11.43;6.13;;;;;;;;;;4979323;28;20499;-49
2023/03/31 11:30:30;;;;;;;5.10;3.60;;;;;;;;;;4958549;28;20394;-47
2023/03/31 11:33:15;;;;;;;7.37;3.10;;;;;;;;;;4973998;28;20765;-48
2023/03/31 11:35:47;;;;;;;6.50;2.93;;;;;;;;;;4975852;28;20470;-47
2023/03/31 11:38:23;;;;;;;7.17;3.30;;;;;;;;;;4975679;28;20419;-47
2023/03/31 11:41:08;;;;;;;4.33;2.90;;;;;;;;;;4976101;28;20432;-47
2023/03/31 11:43:37;;;;;;;6.50;3.20;;;;;;;;;;4976006;28;20877;-47
2023/03/31 11:46:06;;;;;;;10.77;3.73;;;;;;;;;;4976619;28;20464;-46
2023/03/31 11:48:35;;;;;;;5.90;3.63;;;;;;;;;;4975889;28;20777;-47
2023/03/31 11:51:03;;;;;;;10.93;2.90;;;;;;;;;;4976613;28;20479;-48
2023/03/31 11:53:32;;;;;;;4.60;3.50;;;;;;;;;;4975960;28;20777;-46
2023/03/31 11:56:01;;;;;;;6.03;2.70;;;;;;;;;;4965130;28;20487;-48
2023/03/31 11:58:36;;;;;;;10.60;3.30;;;;;;;;;;4969835;28;20430;-48
2023/03/31 12:01:20;;;;;;;8.90;4.13;;;;;;;;;;4977043;28;20446;-47
2023/03/31 12:03:55;;;;;;;7.40;3.10;;;;;;;;;;4977052;28;20413;-48
2023/03/31 12:06:23;;;;;;;7.37;2.77;;;;;;;;;;4980570;28;20989;-49
2023/03/31 12:09:09;;;;;;;11.60;3.57;;;;;;;;;;4988820;28;20493;-46
2023/03/31 12:11:35;;;;;;;8.43;3.20;;;;;;;;;;4974999;28;20461;-47
2023/03/31 12:14:08;;;;;;;9.73;4.10;;;;;;;;;;4987760;28;20430;-49
2023/03/31 12:16:40;;;;;;;13.20;2.90;;;;;;;;;;4988561;28;20427;-48
2023/03/31 12:19:13;;;;;;;6.57;3.63;;;;;;;;;;4984678;28;20523;-46
2023/03/31 12:21:41;;;;;;;7.03;2.90;;;;;;;;;;4985019;28;20496;-49
2023/03/31 12:24:12;;;;;;;6.50;2.70;;;;;;;;;;4985818;28;20419;-48
2023/03/31 12:26:41;;;;;;;8.13;2.27;;;;;;;;;;4985724;28;20468;-48
2023/03/31 12:29:16;;;;;;;4.60;2.90;;;;;;;;;;4987057;28;20490;-49
2023/03/31 12:31:43;;;;;;;4.80;2.83;;;;;;;;;;4985759;28;20412;-48
2023/03/31 12:34:14;;;;;;;5.70;3.30;;;;;;;;;;4986520;28;20439;-48
2023/03/31 12:36:51;;;;;;;7.27;3.40;;;;;;;;;;4985701;28;20466;-48
2023/03/31 12:39:28;;;;;;;9.93;4.27;;;;;;;;;;4980569;28;21001;-48
2023/03/31 12:42:03;;;;;;;5.33;3.07;;;;;;;;;;4991961;28;20455;-46
2023/03/31 12:44:47;;;;;;;9.97;3.83;;;;;;;;;;4984699;28;20427;-47
2023/03/31 12:47:24;;;;;;;10.03;3.73;;;;;;;;;;4984159;28;20495;-46
2023/03/31 12:50:04;;;;;;;7.63;3.60;;;;;;;;;;4980635;28;20550;-46
2023/03/31 12:52:31;;;;;;;9.30;3.40;;;;;;;;;;4977632;28;20884;-48
2023/03/31 12:54:57;;;;;;;8.90;3.20;;;;;;;;;;4985189;28;20777;-48
2023/03/31 12:57:24;;;;;;;9.23;4.17;;;;;;;;;;4987300;28;20422;-46
2023/03/31 13:00:09;;;;;;;11.43;3.13;;;;;;;;;;4983807;28;20441;-49
2023/03/31 13:02:34;;;;;;;8.37;3.30;;;;;;;;;;4981275;28;20852;-47
2023/03/31 13:05:20;;;;;;;5.87;3.00;;;;;;;;;;4985848;28;20502;-48
2023/03/31 13:07:47;;;;;;;11.90;4.53;;;;;;;;;;4975622;28;20432;-48
2023/03/31 13:10:13;;;;;;;10.37;5.30;;;;;;;;;;4990094;28;20408;-47
2023/03/31 13:12:40;;;;;;;9.43;3.30;;;;;;;;;;4980562;28;20489;-47
2023/03/31 13:15:12;;;;;;;8.90;3.70;;;;;;;;;;4985264;28;20412;-48
2023/03/31 13:17:40;;;;;;;7.17;5.47;;;;;;;;;;4983523;28;20487;-48
2023/03/31 13:20:15;;;;;;;13.23;5.10;;;;;;;;;;4984851;28;20970;-48
2023/03/31 13:22:43;;;;;;;8.17;3.77;;;;;;;;;;4984178;28;20773;-48
2023/03/31 13:25:27;;;;;;;10.93;4.37;;;;;;;;;;4986326;28;20493;-46
2023/03/31 13:27:54;;;;;;;15.17;4.90;;;;;;;;;;4984805;28;20460;-48
2023/03/31 13:30:40;;;;;;;11.27;4.90;;;;;;;;;;4988622;28;20425;-47
2023/03/31 13:33:10;;;;;;;9.13;4.13;;;;;;;;;;4978493;28;20522;-48
2023/03/31 13:35:37;;;;;;;7.40;3.83;;;;;;;;;;4986853;28;20410;-49
2023/03/31 13:38:12;;;;;;;7.53;3.70;;;;;;;;;;4984902;28;20414;-48
2023/03/31 13:40:57;;;;;;;6.77;3.37;;;;;;;;;;4979736;28;20790;-47
2023/03/31 13:43:40;;;;;;;6.30;2.83;;;;;;;;;;4975336;28;20423;-49
2023/03/31 13:46:15;;;;;;;8.40;3.30;;;;;;;;;;4974981;28;20474;-48
2023/03/31 13:48:41;;;;;;;10.53;4.40;;;;;;;;;;4975075;28;20589;-47
2023/03/31 13:51:09;;;;;;;8.03;3.90;;;;;;;;;;4975013;28;20488;-46
2023/03/31 13:53:48;;;;;;;6.30;3.27;;;;;;;;;;4975001;28;20411;-48
2023/03/31 13:56:20;;;;;;;5.83;3.73;;;;;;;;;;4970038;28;20423;-48
2023/03/31 13:59:03;;;;;;;7.63;3.53;;;;;;;;;;4974957;28;20454;-48
2023/03/31 14:01:32;;;;;;;5.90;2.73;;;;;;;;;;4975590;28;20426;-48
2023/03/31 14:04:10;;;;;;;22.23;3.63;;;;;;;;;;4973397;28;20445;-47
2023/03/31 14:06:44;;;;;;;6.60;3.27;;;;;;;;;;4975576;28;21003;-47
2023/03/31 14:09:17;;;;;;;11.90;3.97;;;;;;;;;;4974561;28;20433;-47
2023/03/31 14:11:43;;;;;;;8.40;2.97;;;;;;;;;;4975297;28;20412;-47
2023/03/31 14:14:16;;;;;;;8.77;3.13;;;;;;;;;;4974725;28;20412;-46
2023/03/31 14:16:45;;;;;;;16.27;3.40;;;;;;;;;;4974825;28;20460;-48
2023/03/31 14:19:23;;;;;;;9.87;3.60;;;;;;;;;;4974037;28;20669;-48
2023/03/31 14:22:02;;;;;;;7.90;3.27;;;;;;;;;;4974259;28;20410;-46
2023/03/31 14:24:36;;;;;;;7.30;3.30;;;;;;;;;;4973659;28;20455;-49
2023/03/31 14:27:21;;;;;;;6.20;3.07;;;;;;;;;;4974488;28;20466;-47
2023/03/31 14:29:47;;;;;;;11.20;4.90;;;;;;;;;;4973538;28;20555;-48
2023/03/31 14:32:13;;;;;;;5.43;2.43;;;;;;;;;;4974116;28;20887;-48
2023/03/31 14:34:51;;;;;;;7.30;2.17;;;;;;;;;;4974306;28;20428;-49
2023/03/31 14:37:19;;;;;;;6.53;3.50;;;;;;;;;;4974413;28;20406;-47
2023/03/31 14:39:55;;;;;;;6.87;2.23;;;;;;;;;;4974463;28;20447;-47
2023/03/31 14:42:24;;;;;;;7.20;2.07;;;;;;;;;;4973631;28;20440;-47
2023/03/31 14:44:54;;;;;;;4.00;2.57;;;;;;;;;;4972558;28;20429;-47
2023/03/31 14:47:22;;;;;;;5.33;2.30;;;;;;;;;;4975486;28;21013;-48
2023/03/31 14:49:48;;;;;;;7.27;3.33;;;;;;;;;;4977530;28;20445;-49
2023/03/31 14:52:18;;;;;;;7.50;3.10;;;;;;;;;;4977810;28;20487;-48
2023/03/31 14:54:46;;;;;;;9.13;3.17;;;;;;;;;;4978021;28;20409;-46
2023/03/31 14:57:13;;;;;;;6.60;3.83;;;;;;;;;;4977532;28;20424;-47